sensor_id;sensor_type;location;lat;lon;timestamp;temperature;humidity
56234;DHT22;42141;53.240;6.580;2022-07-29T00:01:23;14.50;99.90
56234;DHT22;42141;53.240;6.580;2022-07-29T00:03:49;14.50;99.90
56234;DHT22;42141;53.240;6.580;2022-07-29T00:06:15;14.50;99.90
56234;DHT22;42141;53.240;6.580;2022-07-29T00:08:41;14.50;99.90
56234;DHT22;42141;53.240;6.580;2022-07-29T00:11:07;14.50;99.90
56234;DHT22;42141;53.240;6.580;2022-07-29T00:13:33;14.50;99.90
56234;DHT22;42141;53.240;6.580;2022-07-29T00:15:59;14.50;99.90
56234;DHT22;42141;53.240;6.580;2022-07-29T00:18:28;14.60;99.90
56234;DHT22;42141;53.240;6.580;2022-07-29T00:20:54;14.60;99.90
56234;DHT22;42141;53.240;6.580;2022-07-29T00:23:20;14.60;99.90
56234;DHT22;42141;53.240;6.580;2022-07-29T00:25:45;14.10;99.90
56234;DHT22;42141;53.240;6.580;2022-07-29T00:28:11;14.60;99.90
56234;DHT22;42141;53.240;6.580;2022-07-29T00:30:37;14.60;99.90
56234;DHT22;42141;53.240;6.580;2022-07-29T00:33:03;14.60;99.90
56234;DHT22;42141;53.240;6.580;2022-07-29T00:35:28;14.90;99.90
56234;DHT22;42141;53.240;6.580;2022-07-29T00:38:13;14.70;99.90
56234;DHT22;42141;53.240;6.580;2022-07-29T00:40:40;14.70;99.90
56234;DHT22;42141;53.240;6.580;2022-07-29T00:43:06;14.70;99.90
56234;DHT22;42141;53.240;6.580;2022-07-29T00:45:32;15.40;99.90
56234;DHT22;42141;53.240;6.580;2022-07-29T00:47:58;14.80;99.90
56234;DHT22;42141;53.240;6.580;2022-07-29T00:50:24;14.80;99.90
56234;DHT22;42141;53.240;6.580;2022-07-29T00:52:50;14.80;99.90
56234;DHT22;42141;53.240;6.580;2022-07-29T00:55:19;14.80;99.90
56234;DHT22;42141;53.240;6.580;2022-07-29T00:57:46;14.80;99.90
56234;DHT22;42141;53.240;6.580;2022-07-29T01:00:22;14.80;99.90
56234;DHT22;42141;53.240;6.580;2022-07-29T01:02:48;14.90;99.90
56234;DHT22;42141;53.240;6.580;2022-07-29T01:05:19;14.90;99.90
56234;DHT22;42141;53.240;6.580;2022-07-29T01:07:46;14.90;99.90
56234;DHT22;42141;53.240;6.580;2022-07-29T01:10:14;14.90;99.90
56234;DHT22;42141;53.240;6.580;2022-07-29T01:12:44;14.90;99.90
56234;DHT22;42141;53.240;6.580;2022-07-29T01:15:11;14.90;99.90
56234;DHT22;42141;53.240;6.580;2022-07-29T01:23:37;15.00;99.90
56234;DHT22;42141;53.240;6.580;2022-07-29T01:34:18;15.00;99.90
56234;DHT22;42141;53.240;6.580;2022-07-29T01:36:55;15.00;99.90
56234;DHT22;42141;53.240;6.580;2022-07-29T01:39:35;15.00;99.90
56234;DHT22;42141;53.240;6.580;2022-07-29T01:42:09;15.00;99.90
56234;DHT22;42141;53.240;6.580;2022-07-29T01:44:56;14.90;99.90
56234;DHT22;42141;53.240;6.580;2022-07-29T01:47:26;15.00;99.90
56234;DHT22;42141;53.240;6.580;2022-07-29T01:49:58;15.00;99.90
56234;DHT22;42141;53.240;6.580;2022-07-29T01:55:40;15.00;99.90
56234;DHT22;42141;53.240;6.580;2022-07-29T01:58:08;15.00;99.90
56234;DHT22;42141;53.240;6.580;2022-07-29T02:00:36;15.00;99.90
56234;DHT22;42141;53.240;6.580;2022-07-29T02:03:08;14.90;99.90
56234;DHT22;42141;53.240;6.580;2022-07-29T02:05:37;14.90;99.90
56234;DHT22;42141;53.240;6.580;2022-07-29T02:08:05;14.30;99.90
56234;DHT22;42141;53.240;6.580;2022-07-29T02:10:33;14.80;99.90
56234;DHT22;42141;53.240;6.580;2022-07-29T02:13:01;14.90;99.90
56234;DHT22;42141;53.240;6.580;2022-07-29T02:15:30;15.00;99.90
56234;DHT22;42141;53.240;6.580;2022-07-29T02:18:09;14.90;99.90
56234;DHT22;42141;53.240;6.580;2022-07-29T02:20:36;14.90;99.90
56234;DHT22;42141;53.240;6.580;2022-07-29T02:23:03;14.90;99.90
56234;DHT22;42141;53.240;6.580;2022-07-29T02:25:30;14.90;99.90
56234;DHT22;42141;53.240;6.580;2022-07-29T02:27:57;15.00;99.90
56234;DHT22;42141;53.240;6.580;2022-07-29T02:30:27;14.90;99.90
56234;DHT22;42141;53.240;6.580;2022-07-29T02:32:54;15.00;99.90
56234;DHT22;42141;53.240;6.580;2022-07-29T02:35:24;15.00;99.90
56234;DHT22;42141;53.240;6.580;2022-07-29T02:37:50;15.00;99.90
56234;DHT22;42141;53.240;6.580;2022-07-29T02:40:38;15.00;99.90
56234;DHT22;42141;53.240;6.580;2022-07-29T02:43:06;15.00;99.90
56234;DHT22;42141;53.240;6.580;2022-07-29T02:45:32;15.00;99.90
56234;DHT22;42141;53.240;6.580;2022-07-29T02:48:06;15.00;99.90
56234;DHT22;42141;53.240;6.580;2022-07-29T02:50:42;15.00;99.90
56234;DHT22;42141;53.240;6.580;2022-07-29T02:53:15;15.00;99.90
56234;DHT22;42141;53.240;6.580;2022-07-29T02:56:01;15.40;99.90
56234;DHT22;42141;53.240;6.580;2022-07-29T02:58:31;15.00;99.90
56234;DHT22;42141;53.240;6.580;2022-07-29T03:01:01;14.90;99.90
56234;DHT22;42141;53.240;6.580;2022-07-29T03:03:31;14.90;99.90
56234;DHT22;42141;53.240;6.580;2022-07-29T03:05:59;14.90;99.90
56234;DHT22;42141;53.240;6.580;2022-07-29T03:08:26;14.90;99.90
56234;DHT22;42141;53.240;6.580;2022-07-29T03:10:53;14.90;99.90
56234;DHT22;42141;53.240;6.580;2022-07-29T03:13:19;14.90;99.90
56234;DHT22;42141;53.240;6.580;2022-07-29T03:15:46;14.80;99.90
56234;DHT22;42141;53.240;6.580;2022-07-29T03:18:12;14.80;99.90
56234;DHT22;42141;53.240;6.580;2022-07-29T03:20:39;14.80;99.90
56234;DHT22;42141;53.240;6.580;2022-07-29T03:23:08;14.80;99.90
56234;DHT22;42141;53.240;6.580;2022-07-29T03:25:34;14.80;99.90
56234;DHT22;42141;53.240;6.580;2022-07-29T03:28:00;14.80;99.90
56234;DHT22;42141;53.240;6.580;2022-07-29T03:30:26;14.80;99.90
56234;DHT22;42141;53.240;6.580;2022-07-29T03:32:55;14.70;99.90
56234;DHT22;42141;53.240;6.580;2022-07-29T03:35:21;14.70;99.90
56234;DHT22;42141;53.240;6.580;2022-07-29T03:37:48;15.20;99.90
56234;DHT22;42141;53.240;6.580;2022-07-29T03:40:18;14.70;99.90
56234;DHT22;42141;53.240;6.580;2022-07-29T03:42:45;14.70;99.90
56234;DHT22;42141;53.240;6.580;2022-07-29T03:45:15;14.80;99.90
56234;DHT22;42141;53.240;6.580;2022-07-29T03:47:47;14.80;99.90
56234;DHT22;42141;53.240;6.580;2022-07-29T03:50:15;14.80;99.90
56234;DHT22;42141;53.240;6.580;2022-07-29T03:52:41;15.60;99.90
56234;DHT22;42141;53.240;6.580;2022-07-29T03:55:08;14.80;99.90
56234;DHT22;42141;53.240;6.580;2022-07-29T03:57:35;14.80;99.90
56234;DHT22;42141;53.240;6.580;2022-07-29T04:00:03;14.80;99.90
56234;DHT22;42141;53.240;6.580;2022-07-29T04:02:31;14.80;99.90
56234;DHT22;42141;53.240;6.580;2022-07-29T04:04:57;15.90;99.90
56234;DHT22;42141;53.240;6.580;2022-07-29T04:07:23;14.80;99.90
56234;DHT22;42141;53.240;6.580;2022-07-29T04:09:49;14.80;99.90
56234;DHT22;42141;53.240;6.580;2022-07-29T04:12:15;14.80;99.90
56234;DHT22;42141;53.240;6.580;2022-07-29T04:14:40;15.00;99.90
56234;DHT22;42141;53.240;6.580;2022-07-29T04:17:06;14.80;99.90
56234;DHT22;42141;53.240;6.580;2022-07-29T04:19:32;14.80;99.90
56234;DHT22;42141;53.240;6.580;2022-07-29T04:21:59;14.80;99.90
56234;DHT22;42141;53.240;6.580;2022-07-29T04:24:25;14.80;99.90
56234;DHT22;42141;53.240;6.580;2022-07-29T04:26:51;14.80;99.90
56234;DHT22;42141;53.240;6.580;2022-07-29T04:29:17;15.90;99.90
56234;DHT22;42141;53.240;6.580;2022-07-29T04:31:43;14.80;99.90
56234;DHT22;42141;53.240;6.580;2022-07-29T04:34:10;14.90;99.90
56234;DHT22;42141;53.240;6.580;2022-07-29T04:36:36;14.90;99.90
56234;DHT22;42141;53.240;6.580;2022-07-29T04:39:02;15.00;99.90
56234;DHT22;42141;53.240;6.580;2022-07-29T04:41:28;15.00;99.90
56234;DHT22;42141;53.240;6.580;2022-07-29T04:43:54;15.00;99.90
56234;DHT22;42141;53.240;6.580;2022-07-29T04:46:21;15.40;99.90
56234;DHT22;42141;53.240;6.580;2022-07-29T04:48:47;15.00;99.90
56234;DHT22;42141;53.240;6.580;2022-07-29T04:51:14;15.10;99.90
56234;DHT22;42141;53.240;6.580;2022-07-29T04:53:40;15.10;99.90
56234;DHT22;42141;53.240;6.580;2022-07-29T04:56:06;15.10;99.90
56234;DHT22;42141;53.240;6.580;2022-07-29T04:58:34;15.10;99.90
56234;DHT22;42141;53.240;6.580;2022-07-29T05:01:00;15.20;99.90
56234;DHT22;42141;53.240;6.580;2022-07-29T05:03:26;15.20;99.90
56234;DHT22;42141;53.240;6.580;2022-07-29T05:05:52;15.10;99.90
56234;DHT22;42141;53.240;6.580;2022-07-29T05:08:18;15.20;99.90
56234;DHT22;42141;53.240;6.580;2022-07-29T05:10:44;15.20;99.90
56234;DHT22;42141;53.240;6.580;2022-07-29T05:13:10;15.30;99.90
56234;DHT22;42141;53.240;6.580;2022-07-29T05:15:36;14.50;99.90
56234;DHT22;42141;53.240;6.580;2022-07-29T05:18:03;15.30;99.90
56234;DHT22;42141;53.240;6.580;2022-07-29T05:20:29;14.50;99.90
56234;DHT22;42141;53.240;6.580;2022-07-29T05:22:56;15.10;99.90
56234;DHT22;42141;53.240;6.580;2022-07-29T05:25:23;15.40;99.90
56234;DHT22;42141;53.240;6.580;2022-07-29T05:27:49;15.30;99.90
56234;DHT22;42141;53.240;6.580;2022-07-29T05:30:16;15.40;99.90
56234;DHT22;42141;53.240;6.580;2022-07-29T05:32:42;15.50;99.90
56234;DHT22;42141;53.240;6.580;2022-07-29T05:35:08;15.40;99.90
56234;DHT22;42141;53.240;6.580;2022-07-29T05:37:45;15.50;99.90
56234;DHT22;42141;53.240;6.580;2022-07-29T05:40:11;15.60;99.90
56234;DHT22;42141;53.240;6.580;2022-07-29T05:42:40;15.60;99.90
56234;DHT22;42141;53.240;6.580;2022-07-29T05:45:06;15.70;99.90
56234;DHT22;42141;53.240;6.580;2022-07-29T05:47:32;15.70;99.90
56234;DHT22;42141;53.240;6.580;2022-07-29T05:49:57;15.80;99.90
56234;DHT22;42141;53.240;6.580;2022-07-29T05:52:26;15.90;99.90
56234;DHT22;42141;53.240;6.580;2022-07-29T05:54:52;16.00;99.90
56234;DHT22;42141;53.240;6.580;2022-07-29T05:57:22;15.30;99.90
56234;DHT22;42141;53.240;6.580;2022-07-29T05:59:51;16.10;99.90
56234;DHT22;42141;53.240;6.580;2022-07-29T06:02:17;16.10;99.90
56234;DHT22;42141;53.240;6.580;2022-07-29T06:04:43;16.20;99.90
56234;DHT22;42141;53.240;6.580;2022-07-29T06:07:08;15.50;99.90
56234;DHT22;42141;53.240;6.580;2022-07-29T06:09:35;16.30;99.90
56234;DHT22;42141;53.240;6.580;2022-07-29T06:12:01;16.30;99.90
56234;DHT22;42141;53.240;6.580;2022-07-29T06:14:27;16.40;99.90
56234;DHT22;42141;53.240;6.580;2022-07-29T06:16:54;16.40;99.90
56234;DHT22;42141;53.240;6.580;2022-07-29T06:19:20;16.50;99.90
56234;DHT22;42141;53.240;6.580;2022-07-29T06:21:46;16.50;99.90
56234;DHT22;42141;53.240;6.580;2022-07-29T06:24:13;16.50;99.90
56234;DHT22;42141;53.240;6.580;2022-07-29T06:26:40;16.60;99.90
56234;DHT22;42141;53.240;6.580;2022-07-29T06:29:09;17.40;99.90
56234;DHT22;42141;53.240;6.580;2022-07-29T06:31:40;16.70;99.90
56234;DHT22;42141;53.240;6.580;2022-07-29T06:34:05;16.80;99.90
56234;DHT22;42141;53.240;6.580;2022-07-29T06:36:35;16.90;99.90
56234;DHT22;42141;53.240;6.580;2022-07-29T06:39:03;16.90;99.90
56234;DHT22;42141;53.240;6.580;2022-07-29T06:41:28;17.00;99.90
56234;DHT22;42141;53.240;6.580;2022-07-29T06:43:54;17.10;99.90
56234;DHT22;42141;53.240;6.580;2022-07-29T06:46:21;17.10;99.90
56234;DHT22;42141;53.240;6.580;2022-07-29T06:48:47;17.20;99.90
56234;DHT22;42141;53.240;6.580;2022-07-29T06:51:13;17.30;99.90
56234;DHT22;42141;53.240;6.580;2022-07-29T06:53:39;17.40;99.90
56234;DHT22;42141;53.240;6.580;2022-07-29T06:56:06;17.40;99.90
56234;DHT22;42141;53.240;6.580;2022-07-29T06:58:36;17.50;99.90
56234;DHT22;42141;53.240;6.580;2022-07-29T07:01:04;17.60;99.90
56234;DHT22;42141;53.240;6.580;2022-07-29T07:03:30;17.70;99.90
56234;DHT22;42141;53.240;6.580;2022-07-29T07:05:56;17.80;99.90
56234;DHT22;42141;53.240;6.580;2022-07-29T07:08:22;17.90;99.90
56234;DHT22;42141;53.240;6.580;2022-07-29T07:10:52;17.50;99.90
56234;DHT22;42141;53.240;6.580;2022-07-29T07:13:21;18.10;99.90
56234;DHT22;42141;53.240;6.580;2022-07-29T07:15:47;18.10;99.90
56234;DHT22;42141;53.240;6.580;2022-07-29T07:18:14;18.20;99.90
56234;DHT22;42141;53.240;6.580;2022-07-29T07:20:40;19.20;99.90
56234;DHT22;42141;53.240;6.580;2022-07-29T07:23:06;18.20;99.90
56234;DHT22;42141;53.240;6.580;2022-07-29T07:25:32;18.30;99.90
56234;DHT22;42141;53.240;6.580;2022-07-29T07:27:58;18.30;99.90
56234;DHT22;42141;53.240;6.580;2022-07-29T07:30:24;18.40;99.90
56234;DHT22;42141;53.240;6.580;2022-07-29T07:32:49;18.50;99.90
56234;DHT22;42141;53.240;6.580;2022-07-29T07:35:15;18.50;99.90
56234;DHT22;42141;53.240;6.580;2022-07-29T07:37:41;18.60;99.90
56234;DHT22;42141;53.240;6.580;2022-07-29T07:40:08;18.60;99.90
56234;DHT22;42141;53.240;6.580;2022-07-29T07:42:34;18.60;99.90
56234;DHT22;42141;53.240;6.580;2022-07-29T07:45:00;18.60;99.90
56234;DHT22;42141;53.240;6.580;2022-07-29T07:47:26;18.60;99.90
56234;DHT22;42141;53.240;6.580;2022-07-29T07:49:53;18.70;99.90
56234;DHT22;42141;53.240;6.580;2022-07-29T07:52:21;18.70;99.90
56234;DHT22;42141;53.240;6.580;2022-07-29T07:54:47;18.80;99.90
56234;DHT22;42141;53.240;6.580;2022-07-29T07:57:15;18.80;99.90
56234;DHT22;42141;53.240;6.580;2022-07-29T07:59:41;18.90;99.90
56234;DHT22;42141;53.240;6.580;2022-07-29T08:02:08;19.00;99.90
56234;DHT22;42141;53.240;6.580;2022-07-29T08:04:34;19.00;99.90
56234;DHT22;42141;53.240;6.580;2022-07-29T08:07:01;19.10;99.90
56234;DHT22;42141;53.240;6.580;2022-07-29T08:09:28;19.00;99.90
56234;DHT22;42141;53.240;6.580;2022-07-29T08:11:55;19.10;99.90
56234;DHT22;42141;53.240;6.580;2022-07-29T08:14:21;19.10;99.90
56234;DHT22;42141;53.240;6.580;2022-07-29T08:16:47;19.10;99.90
56234;DHT22;42141;53.240;6.580;2022-07-29T08:19:13;19.20;99.90
56234;DHT22;42141;53.240;6.580;2022-07-29T08:21:38;19.20;99.90
56234;DHT22;42141;53.240;6.580;2022-07-29T08:24:04;19.20;99.90
56234;DHT22;42141;53.240;6.580;2022-07-29T08:26:49;19.20;99.90
56234;DHT22;42141;53.240;6.580;2022-07-29T08:29:14;19.30;99.90
56234;DHT22;42141;53.240;6.580;2022-07-29T08:31:40;19.40;99.90
56234;DHT22;42141;53.240;6.580;2022-07-29T08:34:06;19.50;99.90
56234;DHT22;42141;53.240;6.580;2022-07-29T08:36:33;19.60;99.90
56234;DHT22;42141;53.240;6.580;2022-07-29T08:38:59;19.70;99.90
56234;DHT22;42141;53.240;6.580;2022-07-29T08:41:25;19.80;99.90
56234;DHT22;42141;53.240;6.580;2022-07-29T08:43:51;19.80;99.90
56234;DHT22;42141;53.240;6.580;2022-07-29T08:46:18;19.90;99.90
56234;DHT22;42141;53.240;6.580;2022-07-29T08:48:45;19.90;99.90
56234;DHT22;42141;53.240;6.580;2022-07-29T08:51:16;20.00;99.90
56234;DHT22;42141;53.240;6.580;2022-07-29T08:53:44;20.00;99.90
56234;DHT22;42141;53.240;6.580;2022-07-29T08:56:14;20.00;99.90
56234;DHT22;42141;53.240;6.580;2022-07-29T08:58:41;20.10;99.90
56234;DHT22;42141;53.240;6.580;2022-07-29T09:01:07;20.10;99.90
56234;DHT22;42141;53.240;6.580;2022-07-29T09:03:37;19.00;99.90
56234;DHT22;42141;53.240;6.580;2022-07-29T09:06:03;20.10;99.90
56234;DHT22;42141;53.240;6.580;2022-07-29T09:08:31;20.10;99.90
56234;DHT22;42141;53.240;6.580;2022-07-29T09:10:57;20.10;99.90
56234;DHT22;42141;53.240;6.580;2022-07-29T09:13:24;20.10;99.90
56234;DHT22;42141;53.240;6.580;2022-07-29T09:15:50;20.10;99.90
56234;DHT22;42141;53.240;6.580;2022-07-29T09:21:00;20.20;99.90
56234;DHT22;42141;53.240;6.580;2022-07-29T09:24:04;20.20;99.90
56234;DHT22;42141;53.240;6.580;2022-07-29T09:26:31;20.30;99.90
56234;DHT22;42141;53.240;6.580;2022-07-29T09:28:58;20.30;99.90
56234;DHT22;42141;53.240;6.580;2022-07-29T09:31:35;20.30;99.90
56234;DHT22;42141;53.240;6.580;2022-07-29T09:34:02;20.30;99.90
56234;DHT22;42141;53.240;6.580;2022-07-29T09:36:29;20.40;99.90
56234;DHT22;42141;53.240;6.580;2022-07-29T09:39:02;20.50;99.90
56234;DHT22;42141;53.240;6.580;2022-07-29T09:41:29;20.50;99.90
56234;DHT22;42141;53.240;6.580;2022-07-29T09:43:56;20.50;99.90
56234;DHT22;42141;53.240;6.580;2022-07-29T09:46:23;20.50;99.90
56234;DHT22;42141;53.240;6.580;2022-07-29T09:49:08;20.50;99.90
56234;DHT22;42141;53.240;6.580;2022-07-29T09:51:35;20.50;99.90
56234;DHT22;42141;53.240;6.580;2022-07-29T09:54:01;20.40;99.90
56234;DHT22;42141;53.240;6.580;2022-07-29T09:56:42;20.40;99.90
56234;DHT22;42141;53.240;6.580;2022-07-29T09:59:08;20.40;99.90
56234;DHT22;42141;53.240;6.580;2022-07-29T10:01:35;20.40;99.90
56234;DHT22;42141;53.240;6.580;2022-07-29T10:04:01;20.40;99.90
56234;DHT22;42141;53.240;6.580;2022-07-29T10:06:27;20.40;99.90
56234;DHT22;42141;53.240;6.580;2022-07-29T10:08:54;20.40;99.90
56234;DHT22;42141;53.240;6.580;2022-07-29T10:11:20;20.40;99.90
56234;DHT22;42141;53.240;6.580;2022-07-29T10:13:48;20.40;99.90
56234;DHT22;42141;53.240;6.580;2022-07-29T10:16:17;20.50;99.90
56234;DHT22;42141;53.240;6.580;2022-07-29T10:18:44;20.50;99.90
56234;DHT22;42141;53.240;6.580;2022-07-29T10:21:11;20.50;99.90
56234;DHT22;42141;53.240;6.580;2022-07-29T10:23:41;20.50;99.90
56234;DHT22;42141;53.240;6.580;2022-07-29T10:26:11;20.50;99.90
56234;DHT22;42141;53.240;6.580;2022-07-29T10:28:37;20.50;99.90
56234;DHT22;42141;53.240;6.580;2022-07-29T10:31:06;20.60;99.90
56234;DHT22;42141;53.240;6.580;2022-07-29T10:39:19;20.70;99.90
56234;DHT22;42141;53.240;6.580;2022-07-29T10:42:09;20.60;99.90
56234;DHT22;42141;53.240;6.580;2022-07-29T10:44:40;20.70;99.90
56234;DHT22;42141;53.240;6.580;2022-07-29T10:47:07;20.80;99.90
56234;DHT22;42141;53.240;6.580;2022-07-29T10:49:37;20.80;99.90
56234;DHT22;42141;53.240;6.580;2022-07-29T10:52:09;20.90;99.90
56234;DHT22;42141;53.240;6.580;2022-07-29T10:57:23;20.90;99.90
56234;DHT22;42141;53.240;6.580;2022-07-29T11:02:40;21.00;99.90
56234;DHT22;42141;53.240;6.580;2022-07-29T11:08:19;21.10;99.90
56234;DHT22;42141;53.240;6.580;2022-07-29T11:10:52;21.00;99.90
56234;DHT22;42141;53.240;6.580;2022-07-29T11:16:15;21.00;99.90
56234;DHT22;42141;53.240;6.580;2022-07-29T11:21:43;20.80;99.90
56234;DHT22;42141;53.240;6.580;2022-07-29T11:27:07;20.70;99.90
56234;DHT22;42141;53.240;6.580;2022-07-29T11:29:36;20.70;99.90
56234;DHT22;42141;53.240;6.580;2022-07-29T11:32:14;20.70;99.90
56234;DHT22;42141;53.240;6.580;2022-07-29T11:34:46;20.80;99.90
56234;DHT22;42141;53.240;6.580;2022-07-29T11:39:42;20.90;99.90
56234;DHT22;42141;53.240;6.580;2022-07-29T11:47:28;21.20;99.90
56234;DHT22;42141;53.240;6.580;2022-07-29T11:49:59;21.30;99.90
56234;DHT22;42141;53.240;6.580;2022-07-29T11:52:39;21.50;99.90
56234;DHT22;42141;53.240;6.580;2022-07-29T11:55:18;21.70;99.90
56234;DHT22;42141;53.240;6.580;2022-07-29T11:57:56;22.00;99.90
56234;DHT22;42141;53.240;6.580;2022-07-29T12:00:40;22.30;99.90
56234;DHT22;42141;53.240;6.580;2022-07-29T12:03:10;22.60;99.90
56234;DHT22;42141;53.240;6.580;2022-07-29T12:05:41;22.70;99.90
56234;DHT22;42141;53.240;6.580;2022-07-29T12:08:16;22.80;99.90
56234;DHT22;42141;53.240;6.580;2022-07-29T12:16:51;23.10;99.90
56234;DHT22;42141;53.240;6.580;2022-07-29T12:19:17;23.30;99.90
56234;DHT22;42141;53.240;6.580;2022-07-29T12:21:51;23.40;99.90
56234;DHT22;42141;53.240;6.580;2022-07-29T12:24:18;23.60;99.90
56234;DHT22;42141;53.240;6.580;2022-07-29T12:26:52;23.70;99.90
56234;DHT22;42141;53.240;6.580;2022-07-29T12:29:18;23.80;99.90
56234;DHT22;42141;53.240;6.580;2022-07-29T12:31:45;23.90;99.90
56234;DHT22;42141;53.240;6.580;2022-07-29T12:34:13;24.00;99.90
56234;DHT22;42141;53.240;6.580;2022-07-29T12:36:43;24.00;99.90
56234;DHT22;42141;53.240;6.580;2022-07-29T12:39:10;23.90;99.90
56234;DHT22;42141;53.240;6.580;2022-07-29T12:41:39;24.00;99.60
56234;DHT22;42141;53.240;6.580;2022-07-29T12:44:05;24.10;99.60
56234;DHT22;42141;53.240;6.580;2022-07-29T12:46:32;24.20;99.60
56234;DHT22;42141;53.240;6.580;2022-07-29T12:48:59;24.20;99.00
56234;DHT22;42141;53.240;6.580;2022-07-29T12:51:36;24.20;98.50
56234;DHT22;42141;53.240;6.580;2022-07-29T12:54:14;24.10;98.00
56234;DHT22;42141;53.240;6.580;2022-07-29T12:56:43;24.10;97.60
56234;DHT22;42141;53.240;6.580;2022-07-29T13:01:39;24.30;97.30
56234;DHT22;42141;53.240;6.580;2022-07-29T13:04:05;24.40;96.90
56234;DHT22;42141;53.240;6.580;2022-07-29T13:09:13;24.70;96.50
56234;DHT22;42141;53.240;6.580;2022-07-29T13:11:42;24.80;96.10
56234;DHT22;42141;53.240;6.580;2022-07-29T13:14:11;25.00;96.00
56234;DHT22;42141;53.240;6.580;2022-07-29T13:17:08;25.10;95.40
56234;DHT22;42141;53.240;6.580;2022-07-29T13:20:04;25.50;93.30
56234;DHT22;42141;53.240;6.580;2022-07-29T13:22:30;25.60;93.60
56234;DHT22;42141;53.240;6.580;2022-07-29T13:24:58;25.60;93.00
56234;DHT22;42141;53.240;6.580;2022-07-29T13:27:26;25.50;92.10
56234;DHT22;42141;53.240;6.580;2022-07-29T13:29:56;25.50;92.70
56234;DHT22;42141;53.240;6.580;2022-07-29T13:32:27;25.60;92.80
56234;DHT22;42141;53.240;6.580;2022-07-29T13:34:53;25.80;92.50
56234;DHT22;42141;53.240;6.580;2022-07-29T13:37:20;26.10;92.50
56234;DHT22;42141;53.240;6.580;2022-07-29T13:39:46;26.40;91.50
56234;DHT22;42141;53.240;6.580;2022-07-29T13:42:13;26.60;89.90
56234;DHT22;42141;53.240;6.580;2022-07-29T13:44:42;26.70;87.60
56234;DHT22;42141;53.240;6.580;2022-07-29T13:47:11;26.80;86.30
56234;DHT22;42141;53.240;6.580;2022-07-29T13:49:37;26.90;84.80
56234;DHT22;42141;53.240;6.580;2022-07-29T13:52:03;26.90;82.60
56234;DHT22;42141;53.240;6.580;2022-07-29T13:54:30;27.00;80.70
56234;DHT22;42141;53.240;6.580;2022-07-29T13:56:56;27.10;80.00
56234;DHT22;42141;53.240;6.580;2022-07-29T13:59:23;27.10;77.00
56234;DHT22;42141;53.240;6.580;2022-07-29T14:01:52;27.20;74.20
56234;DHT22;42141;53.240;6.580;2022-07-29T14:04:18;27.20;73.60
56234;DHT22;42141;53.240;6.580;2022-07-29T14:06:44;28.20;72.00
56234;DHT22;42141;53.240;6.580;2022-07-29T14:09:10;27.30;69.70
56234;DHT22;42141;53.240;6.580;2022-07-29T14:11:37;27.30;70.10
56234;DHT22;42141;53.240;6.580;2022-07-29T14:14:04;26.90;70.70
56234;DHT22;42141;53.240;6.580;2022-07-29T14:16:30;27.40;67.30
56234;DHT22;42141;53.240;6.580;2022-07-29T14:18:56;27.40;65.20
56234;DHT22;42141;53.240;6.580;2022-07-29T14:21:22;27.40;63.80
56234;DHT22;42141;53.240;6.580;2022-07-29T14:23:48;27.90;63.90
56234;DHT22;42141;53.240;6.580;2022-07-29T14:26:14;27.40;63.10
56234;DHT22;42141;53.240;6.580;2022-07-29T14:28:40;27.40;63.00
56234;DHT22;42141;53.240;6.580;2022-07-29T14:31:06;27.50;64.20
56234;DHT22;42141;53.240;6.580;2022-07-29T14:33:32;27.70;64.30
56234;DHT22;42141;53.240;6.580;2022-07-29T14:35:57;27.80;65.40
56234;DHT22;42141;53.240;6.580;2022-07-29T14:38:26;28.00;66.00
56234;DHT22;42141;53.240;6.580;2022-07-29T14:40:52;28.10;66.20
56234;DHT22;42141;53.240;6.580;2022-07-29T14:43:19;28.10;64.80
56234;DHT22;42141;53.240;6.580;2022-07-29T14:45:46;28.20;63.80
56234;DHT22;42141;53.240;6.580;2022-07-29T14:48:12;28.30;63.50
56234;DHT22;42141;53.240;6.580;2022-07-29T14:50:41;28.30;63.50
56234;DHT22;42141;53.240;6.580;2022-07-29T14:53:06;28.20;63.90
56234;DHT22;42141;53.240;6.580;2022-07-29T14:55:33;28.20;64.40
56234;DHT22;42141;53.240;6.580;2022-07-29T14:57:59;28.20;63.80
56234;DHT22;42141;53.240;6.580;2022-07-29T15:00:25;28.30;63.10
56234;DHT22;42141;53.240;6.580;2022-07-29T15:02:51;28.30;63.30
56234;DHT22;42141;53.240;6.580;2022-07-29T15:05:17;28.40;62.90
56234;DHT22;42141;53.240;6.580;2022-07-29T15:07:43;28.40;62.10
56234;DHT22;42141;53.240;6.580;2022-07-29T15:10:12;28.40;61.70
56234;DHT22;42141;53.240;6.580;2022-07-29T15:12:38;28.40;61.60
56234;DHT22;42141;53.240;6.580;2022-07-29T15:15:04;28.30;62.40
56234;DHT22;42141;53.240;6.580;2022-07-29T15:17:30;28.30;61.70
56234;DHT22;42141;53.240;6.580;2022-07-29T15:19:56;28.20;61.50
56234;DHT22;42141;53.240;6.580;2022-07-29T15:22:22;28.10;60.70
56234;DHT22;42141;53.240;6.580;2022-07-29T15:24:47;28.00;60.00
56234;DHT22;42141;53.240;6.580;2022-07-29T15:27:13;28.00;60.70
56234;DHT22;42141;53.240;6.580;2022-07-29T15:29:43;28.00;59.80
56234;DHT22;42141;53.240;6.580;2022-07-29T15:32:10;27.80;58.40
56234;DHT22;42141;53.240;6.580;2022-07-29T15:34:37;27.70;58.90
56234;DHT22;42141;53.240;6.580;2022-07-29T15:37:04;27.70;58.10
56234;DHT22;42141;53.240;6.580;2022-07-29T15:39:30;27.60;58.30
56234;DHT22;42141;53.240;6.580;2022-07-29T15:41:56;27.60;58.70
56234;DHT22;42141;53.240;6.580;2022-07-29T15:44:22;27.60;59.00
56234;DHT22;42141;53.240;6.580;2022-07-29T15:46:48;27.70;59.40
56234;DHT22;42141;53.240;6.580;2022-07-29T15:49:36;27.60;59.10
56234;DHT22;42141;53.240;6.580;2022-07-29T15:52:05;27.60;59.60
56234;DHT22;42141;53.240;6.580;2022-07-29T15:54:38;27.60;59.50
56234;DHT22;42141;53.240;6.580;2022-07-29T15:57:06;27.50;58.90
56234;DHT22;42141;53.240;6.580;2022-07-29T15:59:32;27.40;59.00
56234;DHT22;42141;53.240;6.580;2022-07-29T16:01:59;27.30;59.70
56234;DHT22;42141;53.240;6.580;2022-07-29T16:04:25;27.20;60.70
56234;DHT22;42141;53.240;6.580;2022-07-29T16:06:52;27.00;61.60
56234;DHT22;42141;53.240;6.580;2022-07-29T16:09:23;26.90;62.40
56234;DHT22;42141;53.240;6.580;2022-07-29T16:11:50;26.80;62.80
56234;DHT22;42141;53.240;6.580;2022-07-29T16:14:18;26.70;63.40
56234;DHT22;42141;53.240;6.580;2022-07-29T16:16:46;26.60;63.50
56234;DHT22;42141;53.240;6.580;2022-07-29T16:19:13;26.50;63.90
56234;DHT22;42141;53.240;6.580;2022-07-29T16:21:39;26.40;64.70
56234;DHT22;42141;53.240;6.580;2022-07-29T16:24:06;26.20;65.50
56234;DHT22;42141;53.240;6.580;2022-07-29T16:26:32;26.00;66.80
56234;DHT22;42141;53.240;6.580;2022-07-29T16:28:58;25.90;68.30
56234;DHT22;42141;53.240;6.580;2022-07-29T16:31:30;25.80;69.10
56234;DHT22;42141;53.240;6.580;2022-07-29T16:33:56;25.60;69.80
56234;DHT22;42141;53.240;6.580;2022-07-29T16:36:22;25.60;70.70
56234;DHT22;42141;53.240;6.580;2022-07-29T16:38:48;25.50;73.20